Terminal Aerodrome Forecast
Issued by NWS Paducah, KY

Home | Current Version | Previous Version | Text Only | Print | Product List | Glossary On
Versions: 1 2 3 4 5 6 7 8 9 10 11 12 13 14 15
063
FTUS43 KPAH 271120
TAFPAH
TAF
KPAH 271120Z 2712/2812 15006KT P6SM VCTS BKN040CB
     FM271900 17008G15KT P6SM VCTS BKN050CB
      TEMPO 2719/2723 3SM -TSRA BR BKN035CB
     FM280000 18006KT P6SM SCT050 BKN150=

USA.gov is the U.S. government's official web portal to all federal, state and local government web resources and services.